createdAt,value
2023-04-30T00:02:22.441Z,42.90
2023-04-30T00:04:49.538Z,42.54
2023-04-30T00:07:16.289Z,42.18
2023-04-30T00:09:43.323Z,42.80
2023-04-30T00:12:10.212Z,42.76
2023-04-30T00:14:37.683Z,42.24
2023-04-30T00:17:04.832Z,42.96
2023-04-30T00:19:31.465Z,42.97
2023-04-30T00:21:58.503Z,44.54
2023-04-30T00:24:25.256Z,42.44
2023-04-30T00:26:51.997Z,42.34
2023-04-30T00:29:18.770Z,42.95
2023-04-30T00:31:45.902Z,42.25
2023-04-30T00:34:12.732Z,42.05
2023-04-30T00:36:40.572Z,42.52
2023-04-30T00:39:07.692Z,42.66
2023-04-30T00:41:36.158Z,42.47
2023-04-30T00:44:03.318Z,42.02
2023-04-30T00:46:30.936Z,43.43
2023-04-30T00:49:00.193Z,44.25
2023-04-30T00:51:27.454Z,44.79
2023-04-30T00:53:54.322Z,44.16
2023-04-30T00:56:21.616Z,43.63
2023-04-30T00:58:50.345Z,44.69
2023-04-30T01:01:18.638Z,44.19
2023-04-30T01:03:46.022Z,43.34
2023-04-30T01:06:12.896Z,43.35
2023-04-30T01:08:39.701Z,44.41
2023-04-30T01:11:28.276Z,45.64
2023-04-30T01:14:18.744Z,44.23
2023-04-30T01:17:04.494Z,44.71
2023-04-30T01:19:45.871Z,45.91
2023-04-30T01:22:32.278Z,45.07
2023-04-30T01:25:22.042Z,45.24
2023-04-30T01:27:58.821Z,44.08
2023-04-30T01:30:26.062Z,47.58
2023-04-30T01:32:53.048Z,44.71
2023-04-30T01:35:20.777Z,43.69
2023-04-30T01:38:14.737Z,44.07
2023-04-30T01:41:15.203Z,43.51
2023-04-30T01:43:50.679Z,41.66
2023-04-30T01:46:28.223Z,42.74
2023-04-30T01:49:12.152Z,44.19
2023-04-30T01:51:43.081Z,44.52
2023-04-30T01:54:46.595Z,43.81
2023-04-30T01:57:18.407Z,42.68
2023-04-30T01:59:46.714Z,42.65
2023-04-30T02:02:13.458Z,42.45
2023-04-30T02:04:40.166Z,40.87
2023-04-30T02:07:07.273Z,41.64
2023-04-30T02:09:34.523Z,42.12
2023-04-30T02:12:01.267Z,40.89
2023-04-30T02:14:28.493Z,43.45
2023-04-30T02:16:55.182Z,43.60
2023-04-30T02:19:22.420Z,44.05
2023-04-30T02:21:49.540Z,43.33
2023-04-30T02:24:16.293Z,42.76
2023-04-30T02:26:43.433Z,44.97
2023-04-30T02:29:10.124Z,47.13
2023-04-30T02:31:37.376Z,47.01
2023-04-30T02:34:04.435Z,46.50
2023-04-30T02:36:36.295Z,44.10
2023-04-30T02:39:03.102Z,43.11
2023-04-30T02:41:30.618Z,44.22
2023-04-30T02:43:57.382Z,41.93
2023-04-30T02:46:24.328Z,44.28
2023-04-30T02:48:51.402Z,42.04
2023-04-30T02:51:18.513Z,42.38
2023-04-30T02:53:45.391Z,44.64
2023-04-30T02:56:12.365Z,43.88
2023-04-30T02:58:39.162Z,44.41
2023-04-30T03:01:06.499Z,44.84
2023-04-30T03:03:33.881Z,43.93
2023-04-30T03:06:00.951Z,43.50
2023-04-30T03:08:27.926Z,44.71
2023-04-30T03:10:54.690Z,43.85
2023-04-30T03:13:21.574Z,44.37
2023-04-30T03:15:48.669Z,44.86
2023-04-30T03:18:15.392Z,45.47
2023-04-30T03:20:42.691Z,44.36
2023-04-30T03:23:09.520Z,44.66
2023-04-30T03:25:36.590Z,44.50
2023-04-30T03:28:03.440Z,43.31
2023-04-30T03:30:30.685Z,43.30
2023-04-30T03:32:57.722Z,43.29
2023-04-30T03:35:24.533Z,44.35
2023-04-30T03:37:51.430Z,45.39
2023-04-30T03:40:18.659Z,44.42
2023-04-30T03:42:45.521Z,42.63
2023-04-30T03:45:12.278Z,44.40
2023-04-30T03:47:39.317Z,42.36
2023-04-30T03:50:07.415Z,41.79
2023-04-30T03:52:34.224Z,44.78
2023-04-30T03:55:01.010Z,44.31
2023-04-30T03:57:28.131Z,43.57
2023-04-30T03:59:55.599Z,43.35
2023-04-30T04:02:23.418Z,43.49
2023-04-30T04:04:52.097Z,43.35
2023-04-30T04:07:19.309Z,43.48
2023-04-30T04:09:46.216Z,44.41
2023-04-30T04:12:13.225Z,42.34
2023-04-30T04:14:39.957Z,43.98
2023-04-30T04:17:07.224Z,43.42
2023-04-30T04:19:34.413Z,43.25
2023-04-30T04:22:01.278Z,43.38
2023-04-30T04:24:28.253Z,43.49
2023-04-30T04:26:55.605Z,44.59
2023-04-30T04:29:22.374Z,44.81
2023-04-30T04:31:51.173Z,45.19
2023-04-30T04:34:20.063Z,44.58
2023-04-30T04:36:46.808Z,44.43
2023-04-30T04:39:14.658Z,44.15
2023-04-30T04:41:42.095Z,42.11
2023-04-30T04:44:08.972Z,41.95
2023-04-30T04:46:42.330Z,43.51
2023-04-30T04:49:09.258Z,42.43
2023-04-30T04:51:36.225Z,42.15
2023-04-30T04:54:02.927Z,43.88
2023-04-30T04:56:29.912Z,43.95
2023-04-30T04:58:57.059Z,42.92
2023-04-30T05:01:24.074Z,43.78
2023-04-30T05:03:51.319Z,43.13
2023-04-30T05:06:19.711Z,45.71
2023-04-30T05:08:46.476Z,44.88
2023-04-30T05:11:15.420Z,45.88
2023-04-30T05:13:42.501Z,44.10
2023-04-30T05:16:09.279Z,46.04
2023-04-30T05:18:36.286Z,43.83
2023-04-30T05:21:04.402Z,44.54
2023-04-30T05:23:31.427Z,43.34
2023-04-30T05:25:58.174Z,44.13
2023-04-30T05:28:24.882Z,41.81
2023-04-30T05:30:51.936Z,43.42
2023-04-30T05:33:19.124Z,42.55
2023-04-30T05:35:46.216Z,44.13
2023-04-30T05:38:12.977Z,43.80
2023-04-30T05:40:40.830Z,43.71
2023-04-30T05:43:07.958Z,45.13
2023-04-30T05:45:34.738Z,45.03
2023-04-30T05:48:02.206Z,40.32
2023-04-30T05:50:29.240Z,42.76
2023-04-30T05:52:56.012Z,42.24
2023-04-30T05:55:23.176Z,40.96
2023-04-30T05:57:50.141Z,42.59
2023-04-30T06:00:17.349Z,39.78
2023-04-30T06:02:44.382Z,40.43
2023-04-30T06:05:13.370Z,44.47
2023-04-30T06:07:41.404Z,44.72
2023-04-30T06:10:09.420Z,43.29
2023-04-30T06:12:36.536Z,42.46
2023-04-30T06:15:03.812Z,40.38
2023-04-30T06:17:30.912Z,41.83
2023-04-30T06:20:00.833Z,41.17
2023-04-30T06:22:27.554Z,41.72
2023-04-30T06:24:54.632Z,41.34
2023-04-30T06:27:21.715Z,41.54
2023-04-30T06:29:48.420Z,42.69
2023-04-30T06:32:15.132Z,41.48
2023-04-30T06:34:41.864Z,40.75
2023-04-30T06:37:08.661Z,41.45
2023-04-30T06:39:35.578Z,38.49
2023-04-30T06:42:02.466Z,38.67
2023-04-30T06:44:29.223Z,39.39
2023-04-30T06:46:56.400Z,41.82
2023-04-30T06:49:23.112Z,41.93
2023-04-30T06:51:50.200Z,42.43
2023-04-30T06:54:17.208Z,39.99
2023-04-30T06:56:44.843Z,39.19
2023-04-30T06:59:12.290Z,37.60
2023-04-30T07:01:39.091Z,37.26
2023-04-30T07:04:06.066Z,37.52
2023-04-30T07:06:32.921Z,37.27
2023-04-30T07:08:59.969Z,36.35
2023-04-30T07:11:26.811Z,39.62
2023-04-30T07:13:53.967Z,41.16
2023-04-30T07:16:21.142Z,38.70
2023-04-30T07:18:51.123Z,36.29
2023-04-30T07:21:17.890Z,36.50
2023-04-30T07:23:45.636Z,39.31
2023-04-30T07:26:12.688Z,38.74
2023-04-30T07:28:39.431Z,36.80
2023-04-30T07:31:07.268Z,36.47
2023-04-30T07:33:34.149Z,37.13
2023-04-30T07:36:01.278Z,35.77
2023-04-30T07:38:27.975Z,33.83
2023-04-30T07:40:55.206Z,37.23
2023-04-30T07:43:22.307Z,38.47
2023-04-30T07:45:50.098Z,39.00
2023-04-30T07:48:17.446Z,37.24
2023-04-30T07:50:44.143Z,37.61
2023-04-30T07:53:11.042Z,35.66
2023-04-30T07:55:37.763Z,36.30
2023-04-30T07:58:04.501Z,38.08
2023-04-30T08:00:31.638Z,38.69
2023-04-30T08:02:59.246Z,40.03
2023-04-30T08:05:28.362Z,39.97
2023-04-30T08:07:55.444Z,38.96
2023-04-30T08:10:22.469Z,37.14
2023-04-30T08:12:49.303Z,36.89
2023-04-30T08:15:16.770Z,35.85
2023-04-30T08:17:43.470Z,34.22
2023-04-30T08:20:11.296Z,32.83
2023-04-30T08:22:38.146Z,35.35
2023-04-30T08:25:05.365Z,35.42
2023-04-30T08:27:32.851Z,36.93
2023-04-30T08:29:59.596Z,33.53
2023-04-30T08:32:26.463Z,34.89
2023-04-30T08:34:54.416Z,33.23
2023-04-30T08:37:21.786Z,35.09
2023-04-30T08:39:48.490Z,33.16
2023-04-30T08:42:16.045Z,33.12
2023-04-30T08:44:44.067Z,37.04
2023-04-30T08:47:14.659Z,35.27
2023-04-30T08:49:41.674Z,38.06
2023-04-30T08:52:08.790Z,35.65
2023-04-30T08:54:37.128Z,37.44
2023-04-30T08:57:04.775Z,36.18
2023-04-30T08:59:31.648Z,36.04
2023-04-30T09:02:02.375Z,39.53
2023-04-30T09:04:29.439Z,36.68
2023-04-30T09:06:59.196Z,35.12
2023-04-30T09:09:30.742Z,36.89
2023-04-30T09:12:19.970Z,36.06
2023-04-30T09:15:01.504Z,36.85
2023-04-30T09:17:28.557Z,37.86
2023-04-30T09:20:07.515Z,35.90
2023-04-30T09:22:36.163Z,38.37
2023-04-30T09:25:03.512Z,36.41
2023-04-30T09:27:30.322Z,36.45
2023-04-30T09:29:57.182Z,39.02
2023-04-30T09:32:24.320Z,39.68
2023-04-30T09:34:51.311Z,41.50
2023-04-30T09:37:18.032Z,39.00
2023-04-30T09:39:53.983Z,42.51
2023-04-30T09:42:21.260Z,42.19
2023-04-30T09:44:48.260Z,40.62
2023-04-30T09:47:17.866Z,39.33
2023-04-30T09:49:47.904Z,41.66
2023-04-30T09:52:16.204Z,41.60
2023-04-30T09:54:45.261Z,41.12
2023-04-30T09:57:15.558Z,39.65
2023-04-30T09:59:47.282Z,37.04
2023-04-30T10:02:17.159Z,36.84
2023-04-30T10:04:45.005Z,36.58
2023-04-30T10:07:21.827Z,35.16
2023-04-30T10:10:09.502Z,32.12
2023-04-30T10:12:49.159Z,29.33
2023-04-30T10:15:25.771Z,28.47
2023-04-30T10:18:05.664Z,28.10
2023-04-30T10:20:36.568Z,29.28
2023-04-30T10:23:04.026Z,26.37
2023-04-30T10:25:31.857Z,26.10
2023-04-30T10:27:59.143Z,25.81
2023-04-30T10:30:26.901Z,25.35
2023-04-30T10:33:16.864Z,25.09
2023-04-30T10:35:53.567Z,25.65
2023-04-30T10:38:26.052Z,29.50
2023-04-30T10:41:10.985Z,28.53
2023-04-30T10:43:38.171Z,27.36
2023-04-30T10:46:05.074Z,26.93
2023-04-30T10:48:35.488Z,32.50
2023-04-30T10:51:02.162Z,28.86
2023-04-30T10:53:32.373Z,28.60
2023-04-30T10:56:09.333Z,27.98
2023-04-30T10:58:38.727Z,31.88
2023-04-30T11:01:15.822Z,35.65
2023-04-30T11:04:03.728Z,31.32
2023-04-30T11:06:55.087Z,30.26
2023-04-30T11:09:48.542Z,26.53
2023-04-30T11:12:20.825Z,34.26
2023-04-30T11:14:50.118Z,30.33
2023-04-30T11:17:24.803Z,30.26
2023-04-30T11:19:53.714Z,34.63
2023-04-30T11:22:24.743Z,37.67
2023-04-30T11:24:51.435Z,33.41
2023-04-30T11:27:23.670Z,30.21
2023-04-30T11:29:54.854Z,33.72
2023-04-30T11:32:23.556Z,35.18
2023-04-30T11:34:50.651Z,28.84
2023-04-30T11:37:39.847Z,33.90
2023-04-30T11:40:11.045Z,35.94
2023-04-30T11:42:39.951Z,34.27
2023-04-30T11:45:17.922Z,33.42
2023-04-30T11:47:54.033Z,33.83
2023-04-30T11:50:29.229Z,32.27
2023-04-30T11:55:26.172Z,32.80
2023-04-30T11:58:00.000Z,30.41
2023-04-30T12:00:29.254Z,32.32
2023-04-30T12:02:57.012Z,31.83
2023-04-30T12:05:26.967Z,33.90
2023-04-30T12:08:07.528Z,34.29
2023-04-30T12:10:34.902Z,34.38
2023-04-30T12:13:02.552Z,31.70
2023-04-30T12:15:29.570Z,31.40
2023-04-30T12:17:58.141Z,33.43
2023-04-30T12:20:28.444Z,31.98
2023-04-30T12:22:56.032Z,32.81
2023-04-30T12:25:23.334Z,31.67
2023-04-30T12:27:52.755Z,29.13
2023-04-30T12:30:29.306Z,30.92
2023-04-30T12:33:00.933Z,30.83
2023-04-30T12:35:31.455Z,30.28
2023-04-30T12:38:07.044Z,32.79
2023-04-30T12:40:34.329Z,31.12
2023-04-30T12:43:09.282Z,33.34
2023-04-30T12:45:52.900Z,28.25
2023-04-30T12:48:24.524Z,27.38
2023-04-30T12:51:02.408Z,29.12
2023-04-30T12:53:29.706Z,29.76
2023-04-30T12:56:16.955Z,30.14
2023-04-30T12:58:49.659Z,31.88
2023-04-30T13:01:23.073Z,29.29
2023-04-30T13:03:50.819Z,28.42
2023-04-30T13:06:18.004Z,29.52
2023-04-30T13:08:57.821Z,27.38
2023-04-30T13:11:26.997Z,28.25
2023-04-30T13:13:55.937Z,27.83
2023-04-30T13:16:25.211Z,27.72
2023-04-30T13:18:52.675Z,29.36
2023-04-30T13:21:20.744Z,30.69
2023-04-30T13:23:52.911Z,31.89
2023-04-30T13:26:21.858Z,31.35
2023-04-30T13:28:48.692Z,31.95
2023-04-30T13:31:15.841Z,29.62
2023-04-30T13:33:42.788Z,29.98
2023-04-30T13:36:09.812Z,30.29
2023-04-30T13:38:36.571Z,29.80
2023-04-30T13:41:03.270Z,30.98
2023-04-30T13:43:30.300Z,32.32
2023-04-30T13:45:58.757Z,33.61
2023-04-30T13:48:25.876Z,30.85
2023-04-30T13:50:52.758Z,32.62
2023-04-30T13:53:20.058Z,33.01
2023-04-30T13:55:46.771Z,30.46
2023-04-30T13:58:14.080Z,30.78
2023-04-30T14:00:41.186Z,31.13
2023-04-30T14:03:08.427Z,29.75
2023-04-30T14:05:36.600Z,31.01
2023-04-30T14:08:05.420Z,29.12
2023-04-30T14:10:32.936Z,30.58
2023-04-30T14:12:59.665Z,29.84
2023-04-30T14:15:28.079Z,27.82
2023-04-30T14:17:55.349Z,28.08
2023-04-30T14:20:22.158Z,30.49
2023-04-30T14:22:49.109Z,31.01
2023-04-30T14:25:16.482Z,28.00
2023-04-30T14:27:43.264Z,28.30
2023-04-30T14:30:10.683Z,30.14
2023-04-30T14:32:37.840Z,30.51
2023-04-30T14:35:05.545Z,29.05
2023-04-30T14:37:32.240Z,29.44
2023-04-30T14:40:01.861Z,29.93
2023-04-30T14:42:28.656Z,31.62
2023-04-30T14:44:55.605Z,30.27
2023-04-30T14:47:22.743Z,28.73
2023-04-30T14:49:52.130Z,31.02
2023-04-30T14:52:19.928Z,31.35
2023-04-30T14:54:46.703Z,31.22
2023-04-30T14:57:15.108Z,30.40
2023-04-30T14:59:42.060Z,29.95
2023-04-30T15:02:09.390Z,30.40
2023-04-30T15:04:36.206Z,29.79
2023-04-30T15:07:02.972Z,28.09
2023-04-30T15:09:30.124Z,30.16
2023-04-30T15:11:57.809Z,30.48
2023-04-30T15:14:24.540Z,29.49
2023-04-30T15:16:51.766Z,31.88
2023-04-30T15:19:18.501Z,30.38
2023-04-30T15:21:46.985Z,31.25
2023-04-30T15:24:16.129Z,31.14
2023-04-30T15:26:42.807Z,29.69
2023-04-30T15:29:10.809Z,29.32
2023-04-30T15:31:37.847Z,28.11
2023-04-30T15:34:04.891Z,29.17
2023-04-30T15:36:32.422Z,30.27
2023-04-30T15:38:59.898Z,28.89
2023-04-30T15:41:26.790Z,29.20
2023-04-30T15:43:53.606Z,29.09
2023-04-30T15:46:20.470Z,29.94
2023-04-30T15:48:47.554Z,30.76
2023-04-30T15:51:14.395Z,31.70
2023-04-30T15:53:41.181Z,30.69
2023-04-30T15:56:08.981Z,30.53
2023-04-30T15:58:36.154Z,30.74
2023-04-30T16:01:03.097Z,31.00
2023-04-30T16:03:31.199Z,31.51
2023-04-30T16:05:59.390Z,30.43
2023-04-30T16:08:26.816Z,31.82
2023-04-30T16:10:54.352Z,33.13
2023-04-30T16:13:21.511Z,32.38
2023-04-30T16:15:52.363Z,30.94
2023-04-30T16:18:19.087Z,31.75
2023-04-30T16:20:48.734Z,30.81
2023-04-30T16:23:16.753Z,32.39
2023-04-30T16:25:43.577Z,32.45
2023-04-30T16:28:10.343Z,32.51
2023-04-30T16:30:37.549Z,31.30
2023-04-30T16:33:04.340Z,33.66
2023-04-30T16:35:31.325Z,34.52
2023-04-30T16:37:58.134Z,33.85
2023-04-30T16:40:24.936Z,33.96
2023-04-30T16:42:52.245Z,34.30
2023-04-30T16:45:18.993Z,33.83
2023-04-30T16:47:45.976Z,33.50
2023-04-30T16:50:13.193Z,32.65
2023-04-30T16:52:39.915Z,33.09
2023-04-30T16:55:07.186Z,32.89
2023-04-30T16:57:33.972Z,34.24
2023-04-30T17:00:00.898Z,32.25
2023-04-30T17:02:28.098Z,32.42
2023-04-30T17:04:54.844Z,32.22
2023-04-30T17:07:22.007Z,33.65
2023-04-30T17:09:48.855Z,31.93
2023-04-30T17:12:15.946Z,32.72
2023-04-30T17:14:42.885Z,32.83
2023-04-30T17:17:09.706Z,34.10
2023-04-30T17:19:36.481Z,34.70
2023-04-30T17:22:03.559Z,32.74
2023-04-30T17:24:30.402Z,33.47
2023-04-30T17:26:59.340Z,32.48
2023-04-30T17:29:26.401Z,33.82
2023-04-30T17:31:53.477Z,32.93
2023-04-30T17:34:20.960Z,33.20
2023-04-30T17:36:48.963Z,34.17
2023-04-30T17:39:17.011Z,32.73
2023-04-30T17:41:43.754Z,32.65
2023-04-30T17:44:11.781Z,33.88
2023-04-30T17:46:39.625Z,32.28
2023-04-30T17:49:07.444Z,31.94
2023-04-30T17:51:34.210Z,32.38
2023-04-30T17:54:01.302Z,31.41
2023-04-30T17:56:33.207Z,32.11
2023-04-30T17:59:01.039Z,32.67
2023-04-30T18:01:27.933Z,32.62
2023-04-30T18:03:55.344Z,31.67
2023-04-30T18:06:22.669Z,33.80
2023-04-30T18:08:49.489Z,35.30
2023-04-30T18:11:16.642Z,34.52
2023-04-30T18:13:43.768Z,35.18
2023-04-30T18:16:10.793Z,34.60
2023-04-30T18:18:37.866Z,33.70
2023-04-30T18:21:04.711Z,34.21
2023-04-30T18:23:31.893Z,34.54
2023-04-30T18:25:59.011Z,35.76
2023-04-30T18:28:25.806Z,33.74
2023-04-30T18:30:52.897Z,33.82
2023-04-30T18:33:19.670Z,34.08
2023-04-30T18:35:51.557Z,35.69
2023-04-30T18:38:18.799Z,33.17
2023-04-30T18:40:45.784Z,34.07
2023-04-30T18:43:14.607Z,35.02
2023-04-30T18:45:41.432Z,33.71
2023-04-30T18:48:08.518Z,33.25
2023-04-30T18:50:35.326Z,34.38
2023-04-30T18:53:02.286Z,34.46
2023-04-30T18:55:29.254Z,34.18
2023-04-30T18:57:56.488Z,35.02
2023-04-30T19:00:23.280Z,34.31
2023-04-30T19:02:50.054Z,35.19
2023-04-30T19:05:17.455Z,34.68
2023-04-30T19:07:44.749Z,36.29
2023-04-30T19:10:11.523Z,34.56
2023-04-30T19:12:38.618Z,36.83
2023-04-30T19:15:08.531Z,35.59
2023-04-30T19:17:35.437Z,34.19
2023-04-30T19:20:02.429Z,34.18
2023-04-30T19:22:29.311Z,34.79
2023-04-30T19:24:56.104Z,34.52
2023-04-30T19:27:23.316Z,35.17
2023-04-30T19:29:53.944Z,34.62
2023-04-30T19:32:21.202Z,34.61
2023-04-30T19:34:48.081Z,34.17
2023-04-30T19:37:15.073Z,34.98
2023-04-30T19:39:41.903Z,34.97
2023-04-30T19:42:08.800Z,35.24
2023-04-30T19:44:36.039Z,35.51
2023-04-30T19:47:03.545Z,34.81
2023-04-30T19:49:30.496Z,34.49
2023-04-30T19:51:58.351Z,35.57
2023-04-30T19:54:25.072Z,34.60
2023-04-30T19:56:52.911Z,36.30
2023-04-30T19:59:20.210Z,35.08
2023-04-30T20:01:47.893Z,34.95
2023-04-30T20:04:14.925Z,34.84
2023-04-30T20:06:41.950Z,36.58
2023-04-30T20:09:08.988Z,34.84
2023-04-30T20:11:35.764Z,37.29
2023-04-30T20:14:02.706Z,36.97
2023-04-30T20:16:29.859Z,37.49
2023-04-30T20:18:56.896Z,37.36
2023-04-30T20:21:25.033Z,36.74
2023-04-30T20:23:51.748Z,36.46
2023-04-30T20:26:18.711Z,36.94
2023-04-30T20:28:45.539Z,36.03
2023-04-30T20:31:12.734Z,36.45
2023-04-30T20:33:41.283Z,36.20
2023-04-30T20:36:08.185Z,36.93
2023-04-30T20:38:34.972Z,35.93
2023-04-30T20:41:02.148Z,36.70
2023-04-30T20:43:28.992Z,35.22
2023-04-30T20:45:59.052Z,36.70
2023-04-30T20:48:26.689Z,35.20
2023-04-30T20:50:54.009Z,35.60
2023-04-30T20:53:21.196Z,36.39
2023-04-30T20:55:49.065Z,34.93
2023-04-30T20:58:16.120Z,36.20
2023-04-30T21:00:43.047Z,36.08
2023-04-30T21:03:11.009Z,35.60
2023-04-30T21:05:38.469Z,35.01
2023-04-30T21:08:05.564Z,36.22
2023-04-30T21:10:36.367Z,36.56
2023-04-30T21:13:09.416Z,37.37
2023-04-30T21:15:36.584Z,34.93
2023-04-30T21:18:03.941Z,35.66
2023-04-30T21:20:31.628Z,35.91
2023-04-30T21:22:59.002Z,35.83
2023-04-30T21:25:25.979Z,34.96
2023-04-30T21:27:52.680Z,35.37
2023-04-30T21:30:22.330Z,37.10
2023-04-30T21:32:57.746Z,35.98
2023-04-30T21:35:25.231Z,35.01
2023-04-30T21:37:52.011Z,35.60
2023-04-30T21:40:19.124Z,35.69
2023-04-30T21:42:45.906Z,35.60
2023-04-30T21:45:13.265Z,34.88
2023-04-30T21:47:40.748Z,35.94
2023-04-30T21:50:08.581Z,36.35
2023-04-30T21:52:35.272Z,35.99
2023-04-30T21:55:02.072Z,36.71
2023-04-30T21:57:29.134Z,35.87
2023-04-30T21:59:59.004Z,36.24
2023-04-30T22:02:26.633Z,37.58
2023-04-30T22:04:55.439Z,36.28
2023-04-30T22:07:22.798Z,35.57
2023-04-30T22:09:51.629Z,36.03
2023-04-30T22:12:21.363Z,35.81
2023-04-30T22:14:50.198Z,37.79
2023-04-30T22:17:18.262Z,38.65
2023-04-30T22:19:45.005Z,36.54
2023-04-30T22:22:11.992Z,37.31
2023-04-30T22:24:38.811Z,37.58
2023-04-30T22:27:05.645Z,38.20
2023-04-30T22:29:32.378Z,36.83
2023-04-30T22:32:00.530Z,35.97
2023-04-30T22:34:27.590Z,35.70
2023-04-30T22:36:54.309Z,36.93
2023-04-30T22:39:21.181Z,36.49
2023-04-30T22:41:48.122Z,37.06
2023-04-30T22:44:16.589Z,37.21
2023-04-30T22:46:43.798Z,35.94
2023-04-30T22:49:19.933Z,37.21
2023-04-30T22:51:54.447Z,38.09
2023-04-30T22:54:24.200Z,37.40
2023-04-30T22:56:50.938Z,41.36
2023-04-30T22:59:17.693Z,43.24
2023-04-30T23:01:45.449Z,41.96
2023-04-30T23:04:13.353Z,40.57
2023-04-30T23:06:41.609Z,41.24
2023-04-30T23:09:09.124Z,39.20
2023-04-30T23:11:35.918Z,38.12
2023-04-30T23:14:03.592Z,38.40
2023-04-30T23:16:30.540Z,39.48
2023-04-30T23:18:58.313Z,38.10
2023-04-30T23:21:25.504Z,37.47
2023-04-30T23:23:52.360Z,38.18
2023-04-30T23:26:19.176Z,42.90
2023-04-30T23:28:45.896Z,43.73
2023-04-30T23:31:12.718Z,43.79
2023-04-30T23:33:39.520Z,43.84
2023-04-30T23:36:06.668Z,45.50
2023-04-30T23:38:33.656Z,45.26
2023-04-30T23:41:00.700Z,44.36
2023-04-30T23:43:29.718Z,43.42
2023-04-30T23:46:00.296Z,42.30
2023-04-30T23:48:27.314Z,43.62
2023-04-30T23:51:05.038Z,41.50
2023-04-30T23:53:32.195Z,43.53
2023-04-30T23:55:59.634Z,42.02
2023-04-30T23:58:29.983Z,40.92
